createdAt,value
2022-12-27T00:01:15.968Z,98455.06
2022-12-27T00:03:43.003Z,98452.56
2022-12-27T00:06:10.682Z,98453.59
2022-12-27T00:08:37.829Z,98455.06
2022-12-27T00:11:05.867Z,98453.19
2022-12-27T00:13:32.612Z,98453.00
2022-12-27T00:16:03.417Z,98453.41
2022-12-27T00:18:31.427Z,98459.75
2022-12-27T00:20:59.021Z,98465.25
2022-12-27T00:23:26.459Z,98461.97
2022-12-27T00:26:00.287Z,98466.91
2022-12-27T00:28:29.953Z,98471.41
2022-12-27T00:30:56.957Z,98469.38
2022-12-27T00:33:23.749Z,98477.75
2022-12-27T00:35:51.783Z,98474.06
2022-12-27T00:38:18.461Z,98470.78
2022-12-27T00:40:45.414Z,98475.88
2022-12-27T00:43:12.168Z,98481.03
2022-12-27T00:45:38.984Z,98485.13
2022-12-27T00:48:06.281Z,98483.50
2022-12-27T00:50:32.999Z,98486.38
2022-12-27T00:53:00.979Z,98491.09
2022-12-27T00:55:28.059Z,98492.91
2022-12-27T00:57:54.855Z,98493.09
2022-12-27T01:00:21.834Z,98498.91
2022-12-27T01:02:48.644Z,98492.63
2022-12-27T01:05:15.460Z,98494.31
2022-12-27T01:07:42.103Z,98502.94
2022-12-27T01:10:11.212Z,98503.78
2022-12-27T01:12:37.988Z,98506.84
2022-12-27T01:15:07.630Z,98507.91
2022-12-27T01:17:34.352Z,98507.50
2022-12-27T01:20:01.313Z,98511.56
2022-12-27T01:22:28.065Z,98518.78
2022-12-27T01:24:54.797Z,98518.16
2022-12-27T01:27:23.053Z,98524.53
2022-12-27T01:29:49.755Z,98528.81
2022-12-27T01:32:16.421Z,98528.00
2022-12-27T01:34:43.325Z,98527.59
2022-12-27T01:37:10.041Z,98533.72
2022-12-27T01:39:36.724Z,98530.25
2022-12-27T01:42:21.826Z,98539.28
2022-12-27T01:44:56.677Z,98538.88
2022-12-27T01:47:46.393Z,98542.38
2022-12-27T01:50:20.304Z,98536.59
2022-12-27T01:52:50.555Z,98552.22
2022-12-27T01:55:23.343Z,98551.38
2022-12-27T01:57:52.182Z,98552.00
2022-12-27T02:00:20.539Z,98552.84
2022-12-27T02:02:47.953Z,98562.88
2022-12-27T02:05:16.771Z,98554.25
2022-12-27T02:07:54.823Z,98560.41
2022-12-27T02:10:21.641Z,98549.31
2022-12-27T02:12:48.411Z,98564.09
2022-12-27T02:15:15.380Z,98566.97
2022-12-27T02:17:43.487Z,98567.78
2022-12-27T02:20:14.303Z,98567.19
2022-12-27T02:23:36.130Z,98567.81
2022-12-27T02:26:20.938Z,98566.38
2022-12-27T02:29:09.348Z,98580.94
2022-12-27T02:31:41.117Z,98566.56
2022-12-27T02:34:13.572Z,98570.25
2022-12-27T02:36:43.116Z,98571.50
2022-12-27T02:39:11.101Z,98579.72
2022-12-27T02:41:56.750Z,98578.09
2022-12-27T02:44:44.544Z,98590.41
2022-12-27T02:47:37.530Z,98581.16
2022-12-27T02:50:24.228Z,98590.41
2022-12-27T02:53:04.195Z,98593.25
2022-12-27T02:56:04.609Z,98592.00
2022-12-27T02:58:40.689Z,98588.94
2022-12-27T03:01:37.156Z,98584.66
2022-12-27T03:04:21.421Z,98579.31
2022-12-27T03:06:52.761Z,98577.47
2022-12-27T03:10:01.730Z,98585.66
2022-12-27T03:13:03.052Z,98580.34
2022-12-27T03:15:55.110Z,98579.31
2022-12-27T03:18:32.185Z,98586.31
2022-12-27T03:21:19.197Z,98585.69
2022-12-27T03:24:07.116Z,98572.78
2022-12-27T03:26:37.776Z,98575.81
2022-12-27T03:29:25.282Z,98576.44
2022-12-27T03:32:14.714Z,98575.19
2022-12-27T03:34:48.439Z,98570.91
2022-12-27T03:37:41.703Z,98572.97
2022-12-27T03:40:13.240Z,98578.47
2022-12-27T03:43:02.907Z,98570.91
2022-12-27T03:46:00.639Z,98581.38
2022-12-27T03:48:31.429Z,98568.84
2022-12-27T03:51:05.190Z,98570.09
2022-12-27T03:53:34.241Z,98577.88
2022-12-27T03:56:01.314Z,98580.94
2022-12-27T03:58:28.062Z,98569.03
2022-12-27T04:00:54.831Z,98573.75
2022-12-27T04:03:21.667Z,98578.22
2022-12-27T04:05:48.415Z,98566.75
2022-12-27T04:08:34.866Z,98566.53
2022-12-27T04:11:20.001Z,98576.41
2022-12-27T04:14:05.478Z,98577.19
2022-12-27T04:16:50.658Z,98582.50
2022-12-27T04:19:35.861Z,98588.66
2022-12-27T04:22:21.063Z,98584.53
2022-12-27T04:25:07.698Z,98593.56
2022-12-27T04:27:53.187Z,98590.72
2022-12-27T04:30:38.498Z,98576.13
2022-12-27T04:33:24.156Z,98577.94
2022-12-27T04:35:50.848Z,98583.28
2022-12-27T04:38:17.527Z,98576.53
2022-12-27T04:41:03.959Z,98582.47
2022-12-27T04:43:49.357Z,98576.53
2022-12-27T04:46:40.726Z,98573.44
2022-12-27T04:49:30.586Z,98579.59
2022-12-27T04:52:15.843Z,98575.09
2022-12-27T04:54:57.593Z,98579.19
2022-12-27T04:57:26.852Z,98589.47
2022-12-27T05:00:12.093Z,98602.63
2022-12-27T05:02:39.836Z,98600.59
2022-12-27T05:05:08.292Z,98599.31
2022-12-27T05:07:55.368Z,98607.94
2022-12-27T05:10:41.339Z,98603.44
2022-12-27T05:13:30.674Z,98614.91
2022-12-27T05:15:57.972Z,98610.38
2022-12-27T05:18:24.662Z,98609.75
2022-12-27T05:20:51.450Z,98611.63
2022-12-27T05:23:36.654Z,98612.22
2022-12-27T05:26:03.813Z,98610.38
2022-12-27T05:28:32.007Z,98619.41
2022-12-27T05:31:01.790Z,98616.31
2022-12-27T05:33:30.881Z,98619.19
2022-12-27T05:35:58.521Z,98627.41
2022-12-27T05:38:25.176Z,98618.38
2022-12-27T05:40:51.898Z,98624.69
2022-12-27T05:43:18.647Z,98624.50
2022-12-27T05:45:46.665Z,98625.75
2022-12-27T05:48:13.411Z,98625.97
2022-12-27T05:50:40.066Z,98636.66
2022-12-27T05:53:06.767Z,98633.59
2022-12-27T05:55:33.482Z,98630.91
2022-12-27T05:58:00.176Z,98650.19
2022-12-27T06:00:26.788Z,98654.09
2022-12-27T06:02:54.968Z,98664.94
2022-12-27T06:05:22.002Z,98656.31
2022-12-27T06:07:48.766Z,98656.09
2022-12-27T06:10:15.599Z,98650.34
2022-12-27T06:12:42.349Z,98636.19
2022-12-27T06:15:10.070Z,98652.22
2022-12-27T06:17:36.732Z,98654.44
2022-12-27T06:20:05.747Z,98659.78
2022-12-27T06:22:32.418Z,98655.28
2022-12-27T06:24:59.215Z,98646.25
2022-12-27T06:27:25.974Z,98651.59
2022-12-27T06:29:52.605Z,98655.50
2022-12-27T06:32:19.294Z,98660.84
2022-12-27T06:34:45.990Z,98665.78
2022-12-27T06:37:14.169Z,98676.69
2022-12-27T06:39:40.859Z,98673.63
2022-12-27T06:42:07.608Z,98674.03
2022-12-27T06:44:34.306Z,98670.13
2022-12-27T06:47:01.527Z,98667.22
2022-12-27T06:49:28.218Z,98661.47
2022-12-27T06:51:59.515Z,98662.31
2022-12-27T06:54:30.678Z,98675.88
2022-12-27T06:56:57.398Z,98666.41
2022-12-27T06:59:24.425Z,98675.47
2022-12-27T07:01:51.234Z,98675.66
2022-12-27T07:04:18.194Z,98674.66
2022-12-27T07:06:44.963Z,98678.75
2022-12-27T07:09:11.785Z,98683.84
2022-12-27T07:11:39.917Z,98683.06
2022-12-27T07:14:09.589Z,98672.78
2022-12-27T07:16:36.927Z,98668.47
2022-12-27T07:19:04.300Z,98674.88
2022-12-27T07:21:31.051Z,98692.09
2022-12-27T07:23:58.027Z,98693.53
2022-12-27T07:26:29.963Z,98691.50
2022-12-27T07:28:59.814Z,98689.63
2022-12-27T07:31:29.808Z,98694.97
2022-12-27T07:33:57.511Z,98692.13
2022-12-27T07:36:26.430Z,98703.59
2022-12-27T07:38:53.271Z,98711.00
2022-12-27T07:41:20.290Z,98711.19
2022-12-27T07:43:47.751Z,98714.47
2022-12-27T07:46:18.585Z,98715.91
2022-12-27T07:48:46.291Z,98711.19
2022-12-27T07:51:14.713Z,98712.63
2022-12-27T07:53:41.610Z,98721.84
2022-12-27T07:56:09.500Z,98724.94
2022-12-27T07:58:38.055Z,98720.81
2022-12-27T08:01:05.237Z,98727.59
2022-12-27T08:03:33.485Z,98721.81
2022-12-27T08:06:00.445Z,98728.97
2022-12-27T08:08:33.209Z,98719.31
2022-12-27T08:11:05.336Z,98731.03
2022-12-27T08:13:32.695Z,98740.06
2022-12-27T08:15:59.534Z,98733.09
2022-12-27T08:18:26.384Z,98735.34
2022-12-27T08:20:54.743Z,98740.25
2022-12-27T08:23:21.482Z,98735.13
2022-12-27T08:25:49.124Z,98734.91
2022-12-27T08:28:17.853Z,98748.66
2022-12-27T08:30:45.899Z,98747.63
2022-12-27T08:33:13.212Z,98755.81
2022-12-27T08:35:56.078Z,98757.63
2022-12-27T08:38:24.522Z,98751.03
2022-12-27T08:40:51.251Z,98748.31
2022-12-27T08:43:17.973Z,98744.44
2022-12-27T08:45:44.804Z,98742.47
2022-12-27T08:48:11.749Z,98751.91
2022-12-27T08:50:38.582Z,98755.19
2022-12-27T08:53:06.132Z,98746.91
2022-12-27T08:55:34.623Z,98760.22
2022-12-27T08:58:03.283Z,98765.31
2022-12-27T09:00:32.843Z,98765.31
2022-12-27T09:02:59.890Z,98763.94
2022-12-27T09:05:28.049Z,98764.13
2022-12-27T09:07:54.881Z,98764.91
2022-12-27T09:10:22.501Z,98767.19
2022-12-27T09:12:50.713Z,98764.34
2022-12-27T09:15:17.718Z,98769.88
2022-12-27T09:17:44.379Z,98769.25
2022-12-27T09:20:12.504Z,98774.56
2022-12-27T09:22:42.398Z,98767.78
2022-12-27T09:25:09.751Z,98773.34
2022-12-27T09:27:36.848Z,98776.59
2022-12-27T09:30:07.601Z,98777.41
2022-12-27T09:32:34.670Z,98770.34
2022-12-27T09:35:01.607Z,98776.28
2022-12-27T09:37:28.318Z,98777.84
2022-12-27T09:39:55.088Z,98777.63
2022-12-27T09:42:50.813Z,62402.38
2022-12-27T09:45:26.278Z,62402.38
2022-12-27T09:47:58.582Z,62402.38
2022-12-27T09:50:30.400Z,62402.38
2022-12-27T09:53:02.340Z,62402.38
2022-12-27T09:55:38.937Z,62402.38
2022-12-27T09:58:18.482Z,62402.38
2022-12-27T10:00:49.348Z,62402.38
2022-12-27T10:03:25.663Z,62402.38
2022-12-27T10:06:00.290Z,62402.38
2022-12-27T10:08:39.988Z,62402.38
2022-12-27T10:11:36.019Z,62402.38
2022-12-27T10:14:11.253Z,98797.06
2022-12-27T10:16:46.403Z,98807.41
2022-12-27T10:19:29.919Z,62402.38
2022-12-27T10:22:09.948Z,62402.38
2022-12-27T10:24:41.291Z,62402.38
2022-12-27T10:27:14.457Z,62402.38
2022-12-27T10:29:42.508Z,62402.38
2022-12-27T10:32:13.873Z,98800.22
2022-12-27T10:34:40.684Z,98798.28
2022-12-27T10:37:10.041Z,98805.06
2022-12-27T10:39:38.584Z,98797.53
2022-12-27T10:42:15.623Z,98787.94
2022-12-27T10:44:42.406Z,98779.31
2022-12-27T10:47:11.114Z,98774.41
2022-12-27T10:49:39.721Z,98776.31
2022-12-27T10:52:17.176Z,98779.75
2022-12-27T10:54:52.221Z,98781.47
2022-12-27T10:57:27.847Z,98783.22
2022-12-27T11:00:25.059Z,98789.66
2022-12-27T11:02:55.078Z,98788.94
2022-12-27T11:05:28.366Z,98789.78
2022-12-27T11:07:55.433Z,98786.59
2022-12-27T11:10:23.733Z,98781.72
2022-12-27T11:12:57.000Z,98775.69
2022-12-27T11:15:34.148Z,98766.59
2022-12-27T11:18:09.150Z,98780.13
2022-12-27T11:20:39.650Z,98779.41
2022-12-27T11:23:13.709Z,98771.03
2022-12-27T11:25:53.396Z,98768.63
2022-12-27T11:28:29.037Z,98772.25
2022-12-27T11:30:58.174Z,62402.38
2022-12-27T11:33:33.402Z,98774.19
2022-12-27T11:36:01.067Z,98778.59
2022-12-27T11:38:30.393Z,98774.97
2022-12-27T11:40:59.028Z,98776.97
2022-12-27T11:43:27.946Z,98775.31
2022-12-27T11:45:57.234Z,98775.66
2022-12-27T11:48:30.101Z,98775.66
2022-12-27T11:51:13.941Z,98759.88
2022-12-27T11:54:22.388Z,98767.44
2022-12-27T11:56:52.745Z,98771.72
2022-12-27T11:59:37.781Z,98766.25
2022-12-27T12:02:32.385Z,62402.38
2022-12-27T12:05:40.348Z,62402.38
2022-12-27T12:08:27.315Z,98773.94
2022-12-27T12:11:05.191Z,62402.38
2022-12-27T12:13:56.781Z,62402.38
2022-12-27T12:16:48.153Z,62402.38
2022-12-27T12:19:33.199Z,62402.38
2022-12-27T12:22:27.895Z,62402.38
2022-12-27T12:25:08.069Z,62402.38
2022-12-27T12:27:49.116Z,62402.38
2022-12-27T12:30:33.310Z,62402.38
2022-12-27T12:33:06.694Z,98773.94
2022-12-27T12:36:03.642Z,98767.31
2022-12-27T12:38:40.846Z,98767.31
2022-12-27T12:41:43.983Z,98761.97
2022-12-27T12:44:55.720Z,62402.38
2022-12-27T12:47:48.821Z,62402.38
2022-12-27T12:50:34.163Z,62402.38
2022-12-27T12:53:20.371Z,62402.38
2022-12-27T12:56:05.424Z,62402.38
2022-12-27T12:58:45.176Z,62402.38
2022-12-27T13:01:32.843Z,98770.69
2022-12-27T13:04:22.640Z,62402.38
2022-12-27T13:07:11.731Z,98764.25
2022-12-27T13:09:50.780Z,98767.53
2022-12-27T13:12:25.864Z,98762.31
2022-12-27T13:15:17.926Z,62402.38
2022-12-27T13:17:55.354Z,62402.38
2022-12-27T13:20:45.538Z,62402.38
2022-12-27T13:23:33.780Z,62402.38
2022-12-27T13:26:10.321Z,62402.38
2022-12-27T13:28:49.641Z,62402.38
2022-12-27T13:31:27.796Z,62402.38
2022-12-27T13:34:05.082Z,62402.38
2022-12-27T13:36:43.771Z,62402.38
2022-12-27T13:39:31.076Z,62402.38
2022-12-27T13:42:13.350Z,62402.38
2022-12-27T13:44:54.193Z,62402.38
2022-12-27T13:47:55.792Z,62402.38
2022-12-27T13:51:03.231Z,62402.38
2022-12-27T13:54:17.176Z,98724.28
2022-12-27T13:56:54.870Z,98723.09
2022-12-27T13:59:52.225Z,98717.97
2022-12-27T14:02:44.314Z,98712.22
2022-12-27T14:05:48.607Z,98710.00
2022-12-27T14:08:24.815Z,98710.66
2022-12-27T14:11:07.190Z,98711.34
2022-12-27T14:13:37.129Z,98718.78
2022-12-27T14:16:35.006Z,98710.63
2022-12-27T14:19:17.691Z,98710.69
2022-12-27T14:22:03.696Z,98711.56
2022-12-27T14:25:08.355Z,98715.81
2022-12-27T14:28:04.781Z,98710.09
2022-12-27T14:30:54.556Z,98714.06
2022-12-27T14:34:18.255Z,98719.06
2022-12-27T14:37:08.833Z,98722.63
2022-12-27T14:40:13.018Z,98716.50
2022-12-27T14:43:26.209Z,98709.38
2022-12-27T14:46:21.462Z,62402.38
2022-12-27T14:49:21.765Z,62402.38
2022-12-27T14:52:21.885Z,98706.81
2022-12-27T14:55:18.022Z,62402.38
2022-12-27T14:57:51.883Z,62402.38
2022-12-27T15:00:20.240Z,62402.38
2022-12-27T15:03:03.325Z,62402.38
2022-12-27T15:05:58.002Z,98722.09
2022-12-27T15:08:55.729Z,98718.69
2022-12-27T15:11:33.705Z,98718.13
2022-12-27T15:14:15.829Z,98726.41
2022-12-27T15:16:52.413Z,98726.56
2022-12-27T15:19:38.582Z,98725.00
2022-12-27T15:22:16.968Z,98716.50
2022-12-27T15:24:53.463Z,98723.34
2022-12-27T15:27:28.308Z,98723.59
2022-12-27T15:30:17.017Z,98721.56
2022-12-27T15:32:53.409Z,98724.25
2022-12-27T15:35:51.116Z,98713.81
2022-12-27T15:38:47.139Z,98711.81
2022-12-27T15:41:33.627Z,98704.84
2022-12-27T15:44:30.058Z,98695.59
2022-12-27T15:47:39.996Z,98709.69
2022-12-27T15:50:23.262Z,98714.34
2022-12-27T15:53:04.942Z,98707.59
2022-12-27T15:55:58.254Z,98702.09
2022-12-27T15:58:26.109Z,98703.59
2022-12-27T16:01:26.819Z,98700.56
2022-12-27T16:03:55.321Z,98690.50
2022-12-27T16:06:48.997Z,98697.50
2022-12-27T16:09:33.351Z,98695.28
2022-12-27T16:12:03.939Z,98687.91
2022-12-27T16:14:33.107Z,98682.38
2022-12-27T16:17:13.754Z,98680.97
2022-12-27T16:20:16.462Z,98676.25
2022-12-27T16:22:49.998Z,98673.19
2022-12-27T16:25:33.894Z,98672.34
2022-12-27T16:28:07.839Z,98670.28
2022-12-27T16:30:42.941Z,98671.50
2022-12-27T16:33:34.952Z,98669.09
2022-12-27T16:36:21.573Z,98668.03
2022-12-27T16:39:04.003Z,98664.91
2022-12-27T16:41:58.554Z,98666.75
2022-12-27T16:44:37.975Z,62402.38
2022-12-27T16:47:19.271Z,62402.38
2022-12-27T16:50:00.683Z,62402.38
2022-12-27T16:52:47.738Z,62402.38
2022-12-27T16:55:42.398Z,62402.38
2022-12-27T16:58:25.158Z,62402.38
2022-12-27T17:00:55.056Z,62402.38
2022-12-27T17:03:42.572Z,62402.38
2022-12-27T17:06:46.829Z,62402.38
2022-12-27T17:09:41.848Z,62402.38
2022-12-27T17:12:32.375Z,98676.13
2022-12-27T17:15:04.753Z,98665.63
2022-12-27T17:17:33.698Z,98667.09
2022-12-27T17:20:05.133Z,98657.63
2022-12-27T17:22:35.289Z,98666.47
2022-12-27T17:25:03.421Z,98652.50
2022-12-27T17:27:41.462Z,98638.56
2022-12-27T17:30:22.413Z,98640.22
2022-12-27T17:33:37.635Z,98631.16
2022-12-27T17:36:16.876Z,98630.75
2022-12-27T17:38:53.978Z,98630.75
2022-12-27T17:41:51.994Z,98624.59
2022-12-27T17:44:39.373Z,98622.47
2022-12-27T17:47:32.751Z,98622.25
2022-12-27T17:50:03.436Z,98611.16
2022-12-27T17:53:12.936Z,98611.56
2022-12-27T17:56:05.903Z,98615.41
2022-12-27T17:58:34.642Z,98630.19
2022-12-27T18:01:02.849Z,98608.56
2022-12-27T18:03:35.945Z,98614.31
2022-12-27T18:06:04.619Z,98608.59
2022-12-27T18:08:34.224Z,98602.03
2022-12-27T18:11:03.080Z,98596.47
2022-12-27T18:13:33.345Z,98601.84
2022-12-27T18:16:15.346Z,98606.16
2022-12-27T18:18:46.569Z,98606.78
2022-12-27T18:21:22.992Z,98604.72
2022-12-27T18:23:52.793Z,98608.44
2022-12-27T18:26:21.250Z,98604.78
2022-12-27T18:28:48.668Z,98589.44
2022-12-27T18:31:23.329Z,98584.50
2022-12-27T18:33:51.733Z,98596.00
2022-12-27T18:36:27.898Z,98591.75
2022-12-27T18:38:58.812Z,98595.03
2022-12-27T18:41:27.745Z,98606.38
2022-12-27T18:44:00.843Z,98591.59
2022-12-27T18:46:31.595Z,98591.38
2022-12-27T18:48:59.349Z,98605.56
2022-12-27T18:51:32.392Z,98598.34
2022-12-27T18:53:59.998Z,98598.13
2022-12-27T18:56:30.451Z,98595.03
2022-12-27T18:59:03.119Z,98596.25
2022-12-27T19:01:38.193Z,98594.00
2022-12-27T19:04:22.873Z,98576.97
2022-12-27T19:06:55.175Z,98584.84
2022-12-27T19:09:26.216Z,98585.03
2022-12-27T19:11:56.691Z,98578.66
2022-12-27T19:14:24.622Z,98575.19
2022-12-27T19:16:54.272Z,98575.41
2022-12-27T19:19:25.955Z,98573.75
2022-12-27T19:21:54.389Z,98571.91
2022-12-27T19:24:34.034Z,98581.94
2022-12-27T19:27:14.713Z,98577.22
2022-12-27T19:29:49.457Z,98569.44
2022-12-27T19:32:18.001Z,98568.03
2022-12-27T19:34:50.515Z,98567.81
2022-12-27T19:37:19.370Z,98556.72
2022-12-27T19:39:48.229Z,98555.53
2022-12-27T19:42:19.192Z,98552.03
2022-12-27T19:44:45.981Z,98541.59
2022-12-27T19:47:16.954Z,98539.13
2022-12-27T19:49:44.880Z,98532.34
2022-12-27T19:52:16.644Z,98532.03
2022-12-27T19:54:44.960Z,98526.94
2022-12-27T19:57:12.796Z,98534.66
2022-12-27T19:59:39.818Z,98527.91
2022-12-27T20:02:07.247Z,98540.09
2022-12-27T20:04:34.267Z,62402.38
2022-12-27T20:07:01.907Z,62402.38
2022-12-27T20:09:28.743Z,98532.72
2022-12-27T20:11:57.099Z,98535.38
2022-12-27T20:14:23.859Z,98526.41
2022-12-27T20:16:50.601Z,98529.09
2022-12-27T20:19:18.221Z,98528.06
2022-12-27T20:21:45.282Z,62402.38
2022-12-27T20:24:13.048Z,98528.06
2022-12-27T20:26:40.542Z,98528.22
2022-12-27T20:29:09.334Z,98523.91
2022-12-27T20:31:43.832Z,98522.88
2022-12-27T20:34:11.239Z,98518.94
2022-12-27T20:36:38.350Z,98525.28
2022-12-27T20:39:07.265Z,98509.53
2022-12-27T20:41:34.382Z,98506.25
2022-12-27T20:44:01.546Z,98502.38
2022-12-27T20:46:29.905Z,98509.75
2022-12-27T20:48:57.455Z,98513.38
2022-12-27T20:51:27.647Z,98516.53
2022-12-27T20:53:56.343Z,98505.59
2022-12-27T20:56:24.233Z,98503.34
2022-12-27T20:58:51.025Z,98505.06
2022-12-27T21:01:19.958Z,98507.31
2022-12-27T21:03:48.840Z,98493.00
2022-12-27T21:06:17.407Z,62402.38
2022-12-27T21:08:49.001Z,98495.28
2022-12-27T21:11:18.830Z,98484.97
2022-12-27T21:13:46.673Z,98484.59
2022-12-27T21:16:15.166Z,98495.22
2022-12-27T21:18:42.469Z,98493.41
2022-12-27T21:21:14.779Z,98490.06
2022-12-27T21:23:43.464Z,98484.50
2022-12-27T21:26:11.901Z,98487.50
2022-12-27T21:28:39.056Z,98483.41
2022-12-27T21:31:06.916Z,98468.31
2022-12-27T21:33:35.918Z,98478.78
2022-12-27T21:36:05.141Z,98469.34
2022-12-27T21:38:35.067Z,98469.38
2022-12-27T21:41:03.935Z,98464.13
2022-12-27T21:43:31.220Z,98444.16
2022-12-27T21:45:58.419Z,98452.41
2022-12-27T21:48:25.828Z,98446.56
2022-12-27T21:50:52.600Z,98446.34
2022-12-27T21:53:19.923Z,98441.88
2022-12-27T21:55:48.029Z,98433.72
2022-12-27T21:58:14.794Z,98439.84
2022-12-27T22:00:41.513Z,98429.78
2022-12-27T22:03:08.436Z,98432.69
2022-12-27T22:05:35.105Z,98434.22
2022-12-27T22:08:01.910Z,98440.72
2022-12-27T22:10:28.937Z,98431.31
2022-12-27T22:12:57.166Z,98422.72
2022-12-27T22:15:23.912Z,98418.22
2022-12-27T22:17:54.167Z,98411.28
2022-12-27T22:20:20.856Z,98420.72
2022-12-27T22:22:47.560Z,98417.91
2022-12-27T22:25:14.526Z,98417.53
2022-12-27T22:27:41.229Z,98427.25
2022-12-27T22:30:10.444Z,98417.22
2022-12-27T22:32:37.083Z,98419.06
2022-12-27T22:35:04.264Z,98421.03
2022-12-27T22:37:34.029Z,98416.75
2022-12-27T22:40:01.199Z,98419.84
2022-12-27T22:42:27.832Z,98414.00
2022-12-27T22:44:54.524Z,98409.78
2022-12-27T22:47:27.682Z,98405.84
2022-12-27T22:49:54.865Z,98396.59
2022-12-27T22:52:21.520Z,98393.69
2022-12-27T22:55:05.211Z,98394.03
2022-12-27T22:57:33.488Z,98393.19
2022-12-27T23:00:00.254Z,98382.97
2022-12-27T23:02:28.465Z,98381.31
2022-12-27T23:04:55.289Z,98382.31
2022-12-27T23:08:04.547Z,98381.56
2022-12-27T23:10:09.954Z,98377.03
2022-12-27T23:12:36.700Z,98379.66
2022-12-27T23:15:03.731Z,98382.38
2022-12-27T23:17:31.759Z,98369.41
2022-12-27T23:19:58.508Z,98367.09
2022-12-27T23:22:25.185Z,98359.09
2022-12-27T23:24:51.848Z,98362.88
2022-12-27T23:27:18.563Z,98361.41
2022-12-27T23:29:45.211Z,98358.28
2022-12-27T23:32:12.028Z,98357.69
2022-12-27T23:34:41.996Z,98357.28
2022-12-27T23:37:08.921Z,98347.06
2022-12-27T23:39:35.712Z,98342.44
2022-12-27T23:42:02.894Z,98326.13
2022-12-27T23:44:34.112Z,98325.63
2022-12-27T23:47:01.816Z,98328.69
2022-12-27T23:49:28.641Z,98322.78
2022-12-27T23:51:56.892Z,98314.84
2022-12-27T23:54:23.814Z,98306.94
2022-12-27T23:56:50.598Z,98303.00
2022-12-27T23:59:17.629Z,98307.66
